Lyon Satolas, France

19:57 CEST le 20 octobre 2014 (GMT +0200)
Saint Exupery | Change Station
CLOSE
Current Station
Aéroport
Location: Lyon Satolas,
Altitude: 787 ft
Stations météo à proximité

Alt. 787 ft 45.73 °N, 5.08 °E | Updated 27 minutes ago

Clear
Ciel dégagé
70 ° F
Paraît 70 ° F
N
0
Vent Variable Vent de Nord

Aujourd'hui
Haut(e) -- | Bas -- ° F
--% Risque de précip.
Hier
Haut(e) -- | Bas -- ° F
Precip. -- pouce
8:02 AM 6:45 PM
Lune descendante, 10% visible
Pression 30.06 pouce
Visibilité -9999.0 Miles terrestres
Nuages
Point de rosée 59 ° F
Humidité 68%
Précipitations 0.00 pouce
Profondeur de la couche neigeuse Non disponible.
UV Non disponible.
Pollen Non disponible.
Qualité de l'air Non disponible.
Flu Activity Non disponible.
METAR LFLL 201730Z 00000KT CAVOK 21/15 Q1018 NOSIG

More Conditions Fewer Conditions

Pression 30.06 pouce
Visibilité -9999.0 Miles terrestres
Nuages
Point de rosée 59 ° F
Humidité 68%
Précipitations 0.00 pouce
Profondeur de la couche neigeuse Non disponible.
UV Non disponible.
Pollen Non disponible.
Qualité de l'air Non disponible.
Flu Activity Non disponible.
METAR LFLL 201730Z 00000KT CAVOK 21/15 Q1018 NOSIG

More Conditions Fewer Conditions

10-Day Weather Forecast

Almanac

Astronomie

Oct. 20, 2014 Lever Coucher
Temps réel 08:02 CEST 18:45 CEST
Crépuscule civil 07:32 CEST 19:15 CEST
Crépuscule nautique 06:57 CEST 19:50 CEST
Crépuscule astronomique 06:23 CEST 20:24 CEST
Lune 04:26 CEST 17:08 CEST
Durée de lumière visible 11h 43m
Longueur du jour
10h 42m
Tomorrow will be 3m 3s shorter.
Lune descendante, 10% of the Moon is Illuminated
Aujourd'hui
Lune descendante
Oct 23
Nouveau
Oct 30
Premier quartier
Nov 6
Pleine lune
Nov 14
Dernier quartier

Extrêmes aujourd'hui

Country Highs Country Lows

Community

WunderPhotos

Upload Photos

1,763,446 Photos téléchargées !

WunderBlogs® & News

Nearby

Qualité de l'air

Not available.

Épaisseur de neige

Not available.

Activité sismique

Ville Distance Mag. Time & Date
No recent earthquake activity has been reported nearby.
Minimum magnitude displayed is 2.5.

Températures des eaux côtières

Lieu Température
Aucun rapport de station

Stations météo à proximité